createdAt,value
2017-05-07T00:00:02.631Z,72.29
2017-05-07T00:02:30.058Z,72.86
2017-05-07T00:04:57.521Z,72.74
2017-05-07T00:07:25.053Z,72.77
2017-05-07T00:09:52.489Z,72.90
2017-05-07T00:12:19.945Z,73.02
2017-05-07T00:14:47.374Z,73.41
2017-05-07T00:17:14.797Z,73.53
2017-05-07T00:19:42.239Z,73.87
2017-05-07T00:22:09.740Z,73.89
2017-05-07T00:24:37.219Z,73.98
2017-05-07T00:27:04.657Z,74.67
2017-05-07T00:29:32.098Z,74.23
2017-05-07T00:31:59.533Z,74.53
2017-05-07T00:34:27.023Z,74.82
2017-05-07T00:36:54.453Z,75.32
2017-05-07T00:39:21.882Z,75.19
2017-05-07T00:41:49.337Z,75.18
2017-05-07T00:44:16.769Z,75.62
2017-05-07T00:46:44.204Z,75.24
2017-05-07T00:49:11.662Z,75.49
2017-05-07T00:51:39.098Z,75.50
2017-05-07T00:54:06.530Z,75.50
2017-05-07T00:56:33.993Z,75.78
2017-05-07T00:59:01.426Z,76.22
2017-05-07T01:01:28.874Z,75.92
2017-05-07T01:03:56.331Z,76.05
2017-05-07T01:06:23.774Z,76.68
2017-05-07T01:08:51.208Z,76.63
2017-05-07T01:11:18.699Z,76.57
2017-05-07T01:13:46.139Z,76.82
2017-05-07T01:16:13.581Z,76.74
2017-05-07T01:18:41.056Z,76.94
2017-05-07T01:21:08.492Z,77.43
2017-05-07T01:23:35.925Z,77.50
2017-05-07T01:26:03.378Z,77.54
2017-05-07T01:28:30.810Z,77.87
2017-05-07T01:30:58.250Z,77.96
2017-05-07T01:33:25.714Z,77.88
2017-05-07T01:35:53.150Z,78.36
2017-05-07T01:38:20.581Z,77.98
2017-05-07T01:40:53.089Z,78.17
2017-05-07T01:43:20.528Z,77.91
2017-05-07T01:45:47.965Z,78.16
2017-05-07T01:48:15.421Z,78.45
2017-05-07T01:50:42.854Z,78.55
2017-05-07T01:53:10.296Z,78.57
2017-05-07T01:55:37.743Z,78.67
2017-05-07T01:58:05.179Z,78.68
2017-05-07T02:00:32.609Z,79.08
2017-05-07T02:03:00.074Z,79.18
2017-05-07T02:05:27.515Z,79.25
2017-05-07T02:07:54.953Z,79.28
2017-05-07T02:10:22.402Z,79.22
2017-05-07T02:12:49.842Z,79.49
2017-05-07T02:15:17.276Z,79.26
2017-05-07T02:17:44.742Z,79.29
2017-05-07T02:20:12.185Z,79.64
2017-05-07T02:22:39.622Z,79.60
2017-05-07T02:25:07.079Z,79.47
2017-05-07T02:27:34.514Z,79.52
2017-05-07T02:30:01.945Z,79.78
2017-05-07T02:32:29.401Z,80.26
2017-05-07T02:34:56.836Z,80.23
2017-05-07T02:37:24.277Z,80.59
2017-05-07T02:39:51.734Z,80.26
2017-05-07T02:42:19.173Z,80.33
2017-05-07T02:44:46.615Z,80.24
2017-05-07T02:47:14.069Z,80.04
2017-05-07T02:49:41.501Z,80.33
2017-05-07T02:52:08.940Z,80.18
2017-05-07T02:54:36.400Z,80.12
2017-05-07T02:57:03.858Z,80.26
2017-05-07T02:59:31.294Z,80.67
2017-05-07T03:01:58.755Z,80.44
2017-05-07T03:04:26.194Z,80.79
2017-05-07T03:06:53.632Z,80.98
2017-05-07T03:09:21.086Z,81.05
2017-05-07T03:11:48.529Z,80.89
2017-05-07T03:14:15.981Z,81.02
2017-05-07T03:16:43.446Z,80.85
2017-05-07T03:19:10.886Z,80.89
2017-05-07T03:21:38.318Z,81.06
2017-05-07T03:24:05.770Z,81.10
2017-05-07T03:26:33.209Z,81.15
2017-05-07T03:29:00.641Z,81.09
2017-05-07T03:31:28.113Z,81.39
2017-05-07T03:33:55.574Z,81.59
2017-05-07T03:36:23.012Z,81.48
2017-05-07T03:38:50.462Z,81.40
2017-05-07T03:41:17.894Z,82.00
2017-05-07T03:43:45.345Z,81.35
2017-05-07T03:46:12.802Z,81.64
2017-05-07T03:48:40.236Z,81.64
2017-05-07T03:51:07.676Z,81.67
2017-05-07T03:53:35.122Z,81.79
2017-05-07T03:56:02.569Z,81.55
2017-05-07T03:58:30.007Z,81.66
2017-05-07T04:00:57.466Z,81.96
2017-05-07T04:03:24.906Z,81.97
2017-05-07T04:05:52.347Z,82.09
2017-05-07T04:08:19.796Z,81.86
2017-05-07T04:10:47.231Z,82.14
2017-05-07T04:13:14.670Z,81.94
2017-05-07T04:15:42.124Z,82.16
2017-05-07T04:18:09.557Z,81.94
2017-05-07T04:20:37.009Z,82.06
2017-05-07T04:23:04.461Z,82.07
2017-05-07T04:25:31.897Z,82.35
2017-05-07T04:27:59.331Z,82.71
2017-05-07T04:30:26.777Z,82.70
2017-05-07T04:32:54.210Z,82.81
2017-05-07T04:35:21.648Z,82.96
2017-05-07T04:37:49.116Z,82.75
2017-05-07T04:40:16.563Z,82.63
2017-05-07T04:42:43.994Z,82.51
2017-05-07T04:45:11.454Z,82.80
2017-05-07T04:47:38.889Z,82.79
2017-05-07T04:50:06.329Z,82.57
2017-05-07T04:52:33.797Z,82.58
2017-05-07T04:55:01.238Z,82.68
2017-05-07T04:57:28.667Z,82.63
2017-05-07T04:59:56.130Z,82.38
2017-05-07T05:02:23.569Z,82.99
2017-05-07T05:04:51.018Z,82.54
2017-05-07T05:07:18.481Z,83.18
2017-05-07T05:09:45.921Z,83.07
2017-05-07T05:12:13.354Z,83.04
2017-05-07T05:14:40.805Z,83.00
2017-05-07T05:17:08.246Z,83.23
2017-05-07T05:19:51.447Z,82.86
2017-05-07T05:22:19.522Z,83.19
2017-05-07T05:25:02.558Z,82.58
2017-05-07T05:27:45.405Z,82.69
2017-05-07T05:30:27.756Z,82.63
2017-05-07T05:32:55.194Z,82.60
2017-05-07T05:35:22.625Z,82.77
2017-05-07T05:37:50.081Z,83.32
2017-05-07T05:40:17.518Z,82.76
2017-05-07T05:42:44.949Z,82.79
2017-05-07T05:45:12.417Z,83.06
2017-05-07T05:47:39.867Z,82.98
2017-05-07T05:50:07.309Z,83.05
2017-05-07T05:52:34.770Z,83.03
2017-05-07T05:55:02.210Z,83.28
2017-05-07T05:57:29.656Z,83.25
2017-05-07T05:59:57.129Z,83.10
2017-05-07T06:02:24.580Z,83.56
2017-05-07T06:04:52.025Z,84.01
2017-05-07T06:07:19.477Z,83.48
2017-05-07T06:09:46.938Z,83.43
2017-05-07T06:12:14.375Z,83.74
2017-05-07T06:14:41.831Z,83.85
2017-05-07T06:17:09.266Z,83.79
2017-05-07T06:19:36.706Z,83.60
2017-05-07T06:22:04.162Z,83.91
2017-05-07T06:24:31.599Z,83.56
2017-05-07T06:26:59.034Z,83.79
2017-05-07T06:29:26.506Z,83.52
2017-05-07T06:31:53.942Z,83.76
2017-05-07T06:34:21.370Z,83.71
2017-05-07T06:36:48.838Z,83.73
2017-05-07T06:39:16.281Z,83.84
2017-05-07T06:41:43.717Z,83.71
2017-05-07T06:44:11.177Z,84.01
2017-05-07T06:46:38.615Z,83.83
2017-05-07T06:49:06.054Z,83.43
2017-05-07T06:51:33.506Z,83.31
2017-05-07T06:54:00.945Z,83.64
2017-05-07T06:56:28.374Z,83.37
2017-05-07T06:58:55.825Z,83.33
2017-05-07T07:01:23.258Z,83.35
2017-05-07T07:03:50.698Z,83.42
2017-05-07T07:06:18.151Z,83.38
2017-05-07T07:08:45.595Z,83.47
2017-05-07T07:11:13.034Z,83.48
2017-05-07T07:13:40.494Z,83.38
2017-05-07T07:16:07.929Z,83.33
2017-05-07T07:18:35.380Z,83.41
2017-05-07T07:21:02.833Z,83.36
2017-05-07T07:23:30.288Z,83.47
2017-05-07T07:25:57.722Z,83.67
2017-05-07T07:28:25.203Z,83.80
2017-05-07T07:30:52.638Z,83.49
2017-05-07T07:33:20.078Z,83.44
2017-05-07T07:35:47.534Z,83.40
2017-05-07T07:38:14.978Z,83.57
2017-05-07T07:40:42.426Z,83.70
2017-05-07T07:43:09.890Z,83.55
2017-05-07T07:45:37.334Z,83.73
2017-05-07T07:48:04.773Z,83.64
2017-05-07T07:50:32.242Z,83.67
2017-05-07T07:52:59.687Z,83.72
2017-05-07T07:55:27.139Z,83.80
2017-05-07T07:57:54.601Z,83.73
2017-05-07T08:00:22.039Z,83.66
2017-05-07T08:02:49.476Z,83.60
2017-05-07T08:05:16.941Z,83.75
2017-05-07T08:07:44.379Z,83.78
2017-05-07T08:10:11.828Z,83.80
2017-05-07T08:12:39.441Z,83.73
2017-05-07T08:15:06.878Z,83.83
2017-05-07T08:17:34.313Z,83.71
2017-05-07T08:20:01.778Z,83.81
2017-05-07T08:22:29.214Z,83.79
2017-05-07T08:24:57.642Z,83.56
2017-05-07T08:27:25.113Z,83.51
2017-05-07T08:29:52.549Z,83.71
2017-05-07T08:32:23.099Z,83.44
2017-05-07T08:34:50.554Z,83.55
2017-05-07T08:37:18.016Z,83.40
2017-05-07T08:39:45.449Z,83.39
2017-05-07T08:42:12.927Z,83.47
2017-05-07T08:44:40.383Z,83.77
2017-05-07T08:47:07.854Z,83.82
2017-05-07T08:49:35.305Z,83.65
2017-05-07T08:52:02.751Z,83.27
2017-05-07T08:54:30.208Z,83.11
2017-05-07T08:56:57.677Z,83.08
2017-05-07T08:59:25.119Z,83.34
2017-05-07T09:01:52.572Z,83.15
2017-05-07T09:04:20.045Z,83.03
2017-05-07T09:06:47.485Z,83.21
2017-05-07T09:09:14.926Z,83.07
2017-05-07T09:15:00.521Z,83.17
2017-05-07T09:17:49.622Z,83.30
2017-05-07T09:20:17.061Z,83.31
2017-05-07T09:22:44.494Z,83.07
2017-05-07T09:25:11.958Z,82.96
2017-05-07T09:27:39.409Z,83.11
2017-05-07T09:30:06.854Z,82.92
2017-05-07T09:32:34.310Z,82.80
2017-05-07T09:35:01.755Z,82.68
2017-05-07T09:37:29.194Z,82.63
2017-05-07T09:40:00.323Z,82.56
2017-05-07T09:42:27.781Z,82.50
2017-05-07T09:44:56.166Z,82.52
2017-05-07T09:47:23.612Z,82.61
2017-05-07T09:49:57.215Z,82.48
2017-05-07T09:52:30.155Z,82.35
2017-05-07T09:54:57.627Z,82.32
2017-05-07T09:57:25.070Z,82.42
2017-05-07T09:59:52.511Z,82.58
2017-05-07T10:02:20.057Z,82.59
2017-05-07T10:04:47.606Z,82.73
2017-05-07T10:07:15.051Z,82.67
2017-05-07T10:09:42.503Z,82.73
2017-05-07T10:12:10.027Z,83.01
2017-05-07T10:14:37.497Z,82.92
2017-05-07T10:17:04.962Z,82.86
2017-05-07T10:19:32.461Z,82.93
2017-05-07T10:22:04.049Z,83.15
2017-05-07T10:24:31.495Z,82.77
2017-05-07T10:26:58.938Z,82.95
2017-05-07T10:29:26.374Z,82.94
2017-05-07T10:31:53.858Z,82.95
2017-05-07T10:34:21.317Z,82.63
2017-05-07T10:36:48.753Z,82.58
2017-05-07T10:39:16.205Z,82.77
2017-05-07T10:41:43.685Z,82.76
2017-05-07T10:44:12.136Z,82.67
2017-05-07T10:46:39.574Z,82.52
2017-05-07T10:49:07.013Z,82.23
2017-05-07T10:51:34.440Z,82.18
2017-05-07T10:54:01.881Z,81.89
2017-05-07T10:56:29.346Z,81.74
2017-05-07T10:58:56.770Z,81.69
2017-05-07T11:01:24.198Z,81.58
2017-05-07T11:03:51.645Z,81.51
2017-05-07T11:06:19.082Z,81.50
2017-05-07T11:08:46.505Z,81.60
2017-05-07T11:11:13.953Z,81.53
2017-05-07T11:13:41.375Z,81.39
2017-05-07T11:16:08.801Z,81.21
2017-05-07T11:18:36.243Z,81.29
2017-05-07T11:21:03.662Z,81.69
2017-05-07T11:23:31.093Z,81.34
2017-05-07T11:25:58.529Z,81.24
2017-05-07T11:28:25.958Z,81.31
2017-05-07T11:30:53.378Z,81.42
2017-05-07T11:33:20.823Z,81.24
2017-05-07T11:35:48.262Z,81.21
2017-05-07T11:38:15.680Z,81.11
2017-05-07T11:40:43.129Z,80.99
2017-05-07T11:43:10.546Z,80.98
2017-05-07T11:45:37.970Z,80.75
2017-05-07T11:48:05.454Z,80.76
2017-05-07T11:50:32.865Z,80.63
2017-05-07T11:53:00.281Z,80.56
2017-05-07T11:55:27.721Z,80.48
2017-05-07T11:57:55.132Z,80.41
2017-05-07T12:00:22.562Z,80.41
2017-05-07T12:02:50.990Z,80.58
2017-05-07T12:05:18.418Z,80.68
2017-05-07T12:07:45.833Z,80.66
2017-05-07T12:10:13.275Z,80.80
2017-05-07T12:12:40.704Z,80.63
2017-05-07T12:15:08.141Z,80.74
2017-05-07T12:17:39.529Z,80.76
2017-05-07T12:20:06.963Z,80.92
2017-05-07T12:22:34.381Z,81.07
2017-05-07T12:25:01.835Z,81.35
2017-05-07T12:27:29.257Z,81.23
2017-05-07T12:29:56.691Z,82.02
2017-05-07T12:32:24.128Z,81.76
2017-05-07T12:34:51.550Z,81.56
2017-05-07T12:37:18.978Z,81.54
2017-05-07T12:39:48.389Z,81.63
2017-05-07T12:42:15.826Z,81.57
2017-05-07T12:44:43.245Z,81.34
2017-05-07T12:47:10.680Z,81.17
2017-05-07T12:49:38.098Z,80.91
2017-05-07T12:52:05.528Z,80.76
2017-05-07T12:54:32.974Z,80.50
2017-05-07T12:57:00.394Z,80.08
2017-05-07T12:59:27.852Z,79.76
2017-05-07T13:01:55.306Z,79.54
2017-05-07T13:04:22.733Z,79.17
2017-05-07T13:06:50.880Z,79.26
2017-05-07T13:09:18.327Z,79.32
2017-05-07T13:11:45.749Z,79.21
2017-05-07T13:14:13.178Z,78.93
2017-05-07T13:16:40.635Z,78.87
2017-05-07T13:19:08.069Z,78.93
2017-05-07T13:21:35.498Z,78.51
2017-05-07T13:24:02.945Z,78.34
2017-05-07T13:26:30.375Z,78.36
2017-05-07T13:28:57.809Z,78.31
2017-05-07T13:31:25.262Z,78.47
2017-05-07T13:33:52.697Z,78.44
2017-05-07T13:36:20.229Z,78.57
2017-05-07T13:38:47.721Z,78.61
2017-05-07T13:41:15.228Z,78.73
2017-05-07T13:43:42.738Z,78.65
2017-05-07T13:46:10.205Z,78.17
2017-05-07T13:48:37.650Z,77.74
2017-05-07T13:51:05.165Z,77.57
2017-05-07T13:53:32.618Z,77.77
2017-05-07T13:56:00.041Z,77.89
2017-05-07T13:58:28.441Z,78.02
2017-05-07T14:00:55.890Z,77.91
2017-05-07T14:03:23.322Z,77.56
2017-05-07T14:05:50.754Z,77.51
2017-05-07T14:08:18.211Z,77.56
2017-05-07T14:10:47.583Z,77.38
2017-05-07T14:13:15.006Z,77.21
2017-05-07T14:15:43.012Z,77.10
2017-05-07T14:18:10.450Z,76.34
2017-05-07T14:20:37.882Z,75.97
2017-05-07T14:23:06.334Z,76.06
2017-05-07T14:25:34.298Z,76.27
2017-05-07T14:28:01.731Z,76.28
2017-05-07T14:30:29.187Z,76.17
2017-05-07T14:32:56.626Z,75.44
2017-05-07T14:35:24.058Z,75.39
2017-05-07T14:37:53.454Z,75.57
2017-05-07T14:40:20.882Z,75.47
2017-05-07T14:42:48.309Z,75.54
2017-05-07T14:45:15.775Z,75.57
2017-05-07T14:47:43.202Z,74.97
2017-05-07T14:50:17.445Z,74.87
2017-05-07T14:52:44.874Z,74.84
2017-05-07T14:55:12.309Z,75.04
2017-05-07T14:57:39.765Z,75.39
2017-05-07T15:00:07.192Z,75.98
2017-05-07T15:02:34.646Z,76.43
2017-05-07T15:05:02.102Z,76.33
2017-05-07T15:07:29.549Z,76.54
2017-05-07T15:09:57.021Z,77.06
2017-05-07T15:12:25.410Z,76.78
2017-05-07T15:14:52.839Z,76.86
2017-05-07T15:17:20.849Z,77.02
2017-05-07T15:19:48.294Z,77.25
2017-05-07T15:22:15.765Z,77.38
2017-05-07T15:24:43.207Z,77.41
2017-05-07T15:27:10.678Z,77.53
2017-05-07T15:29:38.131Z,77.56
2017-05-07T15:32:13.638Z,77.61
2017-05-07T15:34:41.091Z,77.87
2017-05-07T15:37:08.530Z,77.89
2017-05-07T15:39:35.990Z,77.74
2017-05-07T15:42:03.423Z,78.00
2017-05-07T15:44:30.850Z,77.84
2017-05-07T15:46:58.305Z,77.51
2017-05-07T15:49:25.737Z,77.54
2017-05-07T15:51:53.182Z,77.42
2017-05-07T15:54:20.677Z,77.26
2017-05-07T15:56:48.122Z,77.44
2017-05-07T15:59:21.527Z,77.14
2017-05-07T16:01:50.921Z,76.94
2017-05-07T16:04:18.374Z,76.91
2017-05-07T16:06:45.832Z,76.88
2017-05-07T16:09:13.265Z,76.75
2017-05-07T16:11:40.718Z,76.76
2017-05-07T16:14:08.172Z,76.79
2017-05-07T16:16:47.707Z,76.59
2017-05-07T16:19:30.046Z,77.19
2017-05-07T16:25:30.770Z,76.65
2017-05-07T16:28:01.125Z,76.86
2017-05-07T16:30:29.277Z,76.62
2017-05-07T16:33:18.257Z,76.95
2017-05-07T16:35:45.694Z,77.40
2017-05-07T16:38:13.141Z,77.35
2017-05-07T16:40:40.605Z,77.68
2017-05-07T16:43:08.058Z,77.50
2017-05-07T16:45:35.486Z,77.66
2017-05-07T16:48:02.953Z,77.78
2017-05-07T16:50:30.381Z,78.54
2017-05-07T16:52:57.831Z,78.44
2017-05-07T16:55:25.287Z,78.36
2017-05-07T16:57:52.721Z,78.79
2017-05-07T17:00:20.176Z,78.52
2017-05-07T17:02:53.062Z,78.83
2017-05-07T17:05:22.512Z,78.62
2017-05-07T17:07:49.958Z,79.09
2017-05-07T17:10:17.430Z,79.03
2017-05-07T17:12:44.882Z,79.09
2017-05-07T17:15:12.330Z,79.76
2017-05-07T17:17:39.812Z,79.95
2017-05-07T17:20:07.258Z,80.14
2017-05-07T17:22:34.710Z,80.05
2017-05-07T17:25:02.187Z,80.64
2017-05-07T17:27:29.626Z,80.70
2017-05-07T17:29:57.061Z,81.14
2017-05-07T17:32:24.527Z,80.86
2017-05-07T17:34:52.093Z,81.25
2017-05-07T17:37:19.530Z,81.25
2017-05-07T17:39:46.987Z,81.39
2017-05-07T17:42:14.422Z,81.66
2017-05-07T17:44:41.859Z,81.81
2017-05-07T17:47:09.325Z,81.61
2017-05-07T17:49:36.773Z,82.00
2017-05-07T17:52:04.211Z,82.39
2017-05-07T17:54:31.687Z,82.68
2017-05-07T17:56:59.135Z,82.34
2017-05-07T17:59:26.582Z,82.38
2017-05-07T18:01:54.034Z,82.33
2017-05-07T18:04:21.501Z,82.97
2017-05-07T18:06:48.959Z,83.01
2017-05-07T18:09:16.425Z,83.20
2017-05-07T18:11:43.872Z,83.27
2017-05-07T18:14:11.329Z,83.59
2017-05-07T18:16:38.794Z,83.18
2017-05-07T18:19:06.229Z,83.26
2017-05-07T18:21:33.711Z,83.12
2017-05-07T18:24:01.166Z,83.28
2017-05-07T18:26:28.604Z,83.38
2017-05-07T18:28:56.051Z,83.68
2017-05-07T18:31:23.509Z,83.99
2017-05-07T18:33:50.955Z,83.70
2017-05-07T18:36:18.393Z,83.98
2017-05-07T18:38:45.869Z,84.08
2017-05-07T18:41:13.314Z,83.84
2017-05-07T18:43:40.745Z,83.97
2017-05-07T18:46:08.201Z,83.86
2017-05-07T18:48:35.634Z,83.80
2017-05-07T18:51:03.078Z,83.79
2017-05-07T18:53:30.538Z,83.85
2017-05-07T18:55:57.973Z,83.74
2017-05-07T18:58:25.405Z,83.89
2017-05-07T19:00:52.882Z,84.22
2017-05-07T19:03:20.326Z,83.96
2017-05-07T19:05:47.762Z,83.96
2017-05-07T19:08:15.217Z,84.00
2017-05-07T19:10:42.650Z,84.22
2017-05-07T19:13:10.088Z,84.07
2017-05-07T19:15:37.549Z,84.14
2017-05-07T19:18:04.997Z,84.08
2017-05-07T19:20:32.437Z,84.47
2017-05-07T19:22:59.906Z,84.32
2017-05-07T19:25:27.347Z,84.29
2017-05-07T19:27:54.786Z,84.69
2017-05-07T19:30:22.244Z,84.43
2017-05-07T19:32:49.686Z,84.37
2017-05-07T19:35:17.118Z,84.36
2017-05-07T19:37:44.593Z,84.79
2017-05-07T19:40:12.029Z,84.97
2017-05-07T19:42:39.465Z,85.09
2017-05-07T19:45:06.927Z,84.80
2017-05-07T19:47:34.363Z,84.90
2017-05-07T19:50:01.811Z,84.87
2017-05-07T19:52:29.274Z,84.93
2017-05-07T19:54:56.735Z,84.87
2017-05-07T19:57:24.170Z,85.08
2017-05-07T19:59:51.629Z,84.72
2017-05-07T20:02:19.070Z,85.32
2017-05-07T20:04:46.506Z,84.83
2017-05-07T20:07:13.953Z,85.48
2017-05-07T20:09:41.393Z,84.95
2017-05-07T20:12:09.779Z,85.83
2017-05-07T20:14:37.234Z,85.24
2017-05-07T20:17:04.686Z,85.38
2017-05-07T20:19:32.118Z,85.14
2017-05-07T20:21:59.577Z,85.43
2017-05-07T20:24:27.017Z,85.34
2017-05-07T20:26:54.461Z,85.32
2017-05-07T20:29:21.926Z,85.33
2017-05-07T20:31:49.359Z,85.28
2017-05-07T20:34:16.821Z,85.35
2017-05-07T20:36:44.285Z,85.45
2017-05-07T20:39:11.718Z,85.39
2017-05-07T20:41:39.153Z,85.57
2017-05-07T20:44:06.609Z,85.42
2017-05-07T20:46:34.045Z,85.55
2017-05-07T20:49:01.481Z,85.51
2017-05-07T20:51:28.938Z,85.50
2017-05-07T20:53:56.374Z,85.98
2017-05-07T20:56:33.930Z,85.71
2017-05-07T20:59:01.434Z,85.95
2017-05-07T21:01:28.874Z,85.73
2017-05-07T21:03:56.335Z,85.51
2017-05-07T21:06:23.773Z,85.81
2017-05-07T21:08:51.201Z,85.73
2017-05-07T21:11:18.646Z,85.83
2017-05-07T21:13:46.082Z,85.97
2017-05-07T21:16:13.521Z,85.95
2017-05-07T21:18:40.998Z,85.77
2017-05-07T21:21:08.434Z,86.08
2017-05-07T21:23:35.878Z,85.83
2017-05-07T21:26:03.335Z,85.77
2017-05-07T21:28:30.766Z,85.98
2017-05-07T21:30:58.207Z,86.37
2017-05-07T21:33:25.678Z,86.23
2017-05-07T21:35:53.110Z,86.04
2017-05-07T21:38:20.537Z,86.11
2017-05-07T21:40:49.937Z,86.11
2017-05-07T21:43:17.374Z,86.22
2017-05-07T21:45:46.789Z,86.25
2017-05-07T21:48:14.249Z,86.10
2017-05-07T21:50:41.706Z,86.23
2017-05-07T21:53:11.134Z,86.14
2017-05-07T21:55:38.602Z,86.02
2017-05-07T21:58:06.030Z,86.02
2017-05-07T22:00:33.462Z,86.23
2017-05-07T22:03:00.922Z,86.11
2017-05-07T22:05:28.362Z,85.94
2017-05-07T22:07:55.794Z,86.07
2017-05-07T22:10:23.241Z,86.05
2017-05-07T22:12:50.686Z,86.28
2017-05-07T22:15:18.118Z,86.41
2017-05-07T22:17:45.580Z,86.28
2017-05-07T22:20:13.006Z,86.36
2017-05-07T22:22:40.441Z,86.31
2017-05-07T22:25:07.902Z,86.49
2017-05-07T22:27:35.334Z,86.44
2017-05-07T22:30:02.782Z,87.89
2017-05-07T22:32:30.239Z,87.93
2017-05-07T22:34:57.670Z,87.71
2017-05-07T22:37:25.102Z,87.82
2017-05-07T22:39:52.561Z,87.28
2017-05-07T22:42:20.000Z,87.03
2017-05-07T22:44:47.445Z,86.97
2017-05-07T22:47:14.911Z,86.83
2017-05-07T22:49:42.458Z,86.58
2017-05-07T22:52:09.894Z,86.51
2017-05-07T22:54:37.350Z,86.34
2017-05-07T22:57:04.790Z,86.31
2017-05-07T22:59:32.226Z,86.17
2017-05-07T23:01:59.702Z,86.01
2017-05-07T23:04:27.139Z,85.83
2017-05-07T23:06:54.573Z,85.73
2017-05-07T23:09:22.035Z,85.69
2017-05-07T23:11:49.479Z,85.64
2017-05-07T23:14:16.914Z,85.51
2017-05-07T23:16:44.361Z,85.39
2017-05-07T23:19:12.503Z,85.36
2017-05-07T23:21:39.938Z,85.25
2017-05-07T23:24:07.410Z,85.18
2017-05-07T23:26:34.847Z,85.09
2017-05-07T23:29:02.289Z,85.01
2017-05-07T23:31:29.754Z,84.95
2017-05-07T23:33:57.185Z,84.92
2017-05-07T23:36:24.626Z,84.86
2017-05-07T23:38:52.090Z,84.88
2017-05-07T23:41:19.536Z,84.79
2017-05-07T23:43:46.970Z,84.75
2017-05-07T23:46:14.422Z,84.73
2017-05-07T23:48:41.862Z,84.78
2017-05-07T23:51:09.303Z,84.70
2017-05-07T23:53:36.770Z,84.75
2017-05-07T23:56:04.207Z,84.80
2017-05-07T23:58:31.646Z,84.81
